Time;durP1;ratioP1;P1;durP2;ratioP2;P2;SDS_P1;SDS_P2;PMS_P1;PMS_P2;Temp;Humidity;BMP_temperature;BMP_pressure;BME280_temperature;BME280_humidity;BME280_pressure;Samples;Min_cycle;Max_cycle;Signal;HPM_P1;HPM_P2
2022/10/02 00:00:13;;;;;;;10.32;2.35;;;11.80;99.90;;;;;;5071897;28;20063;-74
2022/10/02 00:02:56;;;;;;;9.82;2.75;;;11.80;99.90;;;;;;5071981;28;20032;-73
2022/10/02 00:05:40;;;;;;;15.93;3.10;;;11.80;99.90;;;;;;5054850;28;20036;-73
2022/10/02 00:08:32;;;;;;;11.38;2.58;;;11.80;99.90;;;;;;5071543;28;20507;-73
2022/10/02 00:11:10;;;;;;;9.70;3.47;;;11.80;99.90;;;;;;5071438;28;20532;-73
2022/10/02 00:13:46;;;;;;;9.50;2.88;;;11.90;99.90;;;;;;5054844;28;20044;-73
2022/10/02 00:16:22;;;;;;;8.65;2.55;;;11.90;99.90;;;;;;5071166;28;20037;-73
2022/10/02 00:18:49;;;;;;;10.18;2.92;;;11.90;99.90;;;;;;5054797;28;20036;-74
2022/10/02 00:21:45;;;;;;;12.10;2.90;;;11.90;99.90;;;;;;5071066;28;20523;-74
2022/10/02 00:24:16;;;;;;;10.48;3.17;;;11.90;99.90;;;;;;5071813;28;20053;-74
2022/10/02 00:26:55;;;;;;;9.25;2.97;;;11.80;99.90;;;;;;5069404;28;20028;-74
2022/10/02 00:29:24;;;;;;;10.93;2.80;;;11.70;99.90;;;;;;5071850;28;20052;-74
2022/10/02 00:32:11;;;;;;;10.40;2.72;;;11.60;99.90;;;;;;5071569;28;20041;-74
2022/10/02 00:34:59;;;;;;;13.95;3.13;;;11.60;99.90;;;;;;5055575;28;20059;-74
2022/10/02 00:37:49;;;;;;;12.98;2.95;;;11.50;99.90;;;;;;5071901;28;20093;-74
2022/10/02 00:40:33;;;;;;;12.85;3.17;;;11.50;99.90;;;;;;5071523;28;20040;-74
2022/10/02 00:43:18;;;;;;;14.30;3.40;;;11.40;99.90;;;;;;5071587;28;20036;-74
2022/10/02 00:46:26;;;;;;;12.30;3.47;;;11.40;99.90;;;;;;5071877;28;20040;-74
2022/10/02 00:49:07;;;;;;;13.43;2.80;;;11.30;99.90;;;;;;5071681;28;20146;-73
2022/10/02 00:52:02;;;;;;;9.77;2.90;;;11.30;99.90;;;;;;5071384;28;20048;-74
2022/10/02 00:54:52;;;;;;;13.07;3.15;;;11.20;99.90;;;;;;5071233;28;20484;-74
2022/10/02 00:57:44;;;;;;;13.98;3.33;;;11.10;99.90;;;;;;5070007;28;20116;-74
2022/10/02 01:00:13;;;;;;;14.13;3.45;;;11.00;99.90;;;;;;5054413;28;20140;-74
2022/10/02 01:02:57;;;;;;;15.15;3.47;;;11.00;99.90;;;;;;5071345;28;20044;-74
2022/10/02 01:05:24;;;;;;;18.75;3.80;;;10.90;99.90;;;;;;5070816;28;20040;-74
2022/10/02 01:07:53;;;;;;;13.18;3.20;;;10.80;99.90;;;;;;5071563;28;20454;-74
2022/10/02 01:10:24;;;;;;;16.33;3.58;;;10.80;99.90;;;;;;5071275;28;20496;-74
2022/10/02 01:12:50;;;;;;;13.55;2.83;;;10.80;99.90;;;;;;5055143;28;20094;-74
2022/10/02 01:15:18;;;;;;;11.20;3.10;;;10.80;99.90;;;;;;5070714;28;20123;-74
2022/10/02 01:17:48;;;;;;;11.05;3.13;;;10.80;99.90;;;;;;5055061;28;20671;-74
2022/10/02 01:20:25;;;;;;;18.23;3.05;;;10.80;99.90;;;;;;5070560;28;20044;-74
2022/10/02 01:23:01;;;;;;;11.57;3.03;;;10.80;99.90;;;;;;5071163;28;20039;-74
2022/10/02 01:25:27;;;;;;;15.13;2.87;;;11.40;99.90;;;;;;5070275;28;20372;-74
2022/10/02 01:27:53;;;;;;;14.95;3.15;;;10.80;99.90;;;;;;5054633;28;20074;-74
2022/10/02 01:30:20;;;;;;;14.15;3.33;;;10.80;99.90;;;;;;5071065;28;20049;-74
2022/10/02 01:32:52;;;;;;;14.30;3.05;;;10.80;99.90;;;;;;5054429;28;20067;-73
2022/10/02 01:35:21;;;;;;;18.52;3.47;;;10.80;99.90;;;;;;5070606;28;20048;-73
2022/10/02 01:37:49;;;;;;;18.60;3.17;;;10.80;99.90;;;;;;5058970;28;20044;-74
2022/10/02 01:40:30;;;;;;;15.20;3.20;;;10.80;99.90;;;;;;5070587;28;20048;-74
2022/10/02 01:43:03;;;;;;;15.02;3.13;;;10.80;99.90;;;;;;5069933;28;20064;-74
2022/10/02 01:45:37;;;;;;;11.88;3.10;;;10.80;99.90;;;;;;5070816;28;20086;-74
2022/10/02 01:48:18;;;;;;;17.45;3.47;;;10.90;99.90;;;;;;5070342;28;20040;-73
2022/10/02 01:50:53;;;;;;;15.43;2.88;;;10.80;99.90;;;;;;5070483;28;20388;-73
2022/10/02 01:53:36;;;;;;;16.58;2.80;;;10.80;99.90;;;;;;5070484;28;20051;-74
2022/10/02 01:56:16;;;;;;;10.23;2.70;;;10.90;99.90;;;;;;5069404;28;20044;-74
2022/10/02 01:58:42;;;;;;;14.30;2.97;;;11.00;99.90;;;;;;5070582;28;20120;-74
2022/10/02 02:01:23;;;;;;;11.53;2.90;;;11.00;99.90;;;;;;5069824;28;20127;-75
2022/10/02 02:04:00;;;;;;;14.32;2.80;;;11.10;99.90;;;;;;5070100;28;20381;-74
2022/10/02 02:06:32;;;;;;;10.88;2.38;;;11.10;99.90;;;;;;5069785;28;20171;-74
2022/10/02 02:09:28;;;;;;;8.18;2.50;;;11.20;99.90;;;;;;5070385;28;20040;-74
2022/10/02 02:12:18;;;;;;;12.55;2.65;;;11.20;99.90;;;;;;5053606;28;20052;-73
2022/10/02 02:14:52;;;;;;;13.13;2.35;;;11.20;99.90;;;;;;5069226;28;20052;-74
2022/10/02 02:17:27;;;;;;;14.07;2.80;;;11.10;99.90;;;;;;5053034;28;20048;-74
2022/10/02 02:20:21;;;;;;;12.73;2.83;;;11.10;99.90;;;;;;5068393;28;20048;-73
2022/10/02 02:22:50;;;;;;;10.40;2.13;;;11.20;99.90;;;;;;5067623;28;20377;-74
2022/10/02 02:25:24;;;;;;;8.98;2.33;;;11.20;99.90;;;;;;5069410;28;20107;-74
2022/10/02 02:27:57;;;;;;;11.85;2.50;;;11.20;99.90;;;;;;5051379;28;20036;-74
2022/10/02 02:30:24;;;;;;;9.52;2.47;;;11.20;99.90;;;;;;5052996;28;20376;-74
2022/10/02 02:32:57;;;;;;;9.80;2.08;;;11.10;99.90;;;;;;5052903;28;20106;-73
2022/10/02 02:35:31;;;;;;;8.07;2.00;;;11.10;99.90;;;;;;5069398;28;20044;-73
2022/10/02 02:38:09;;;;;;;15.93;2.65;;;11.10;99.90;;;;;;5070068;28;20037;-74
2022/10/02 02:40:40;;;;;;;11.57;2.05;;;11.10;99.90;;;;;;5067975;28;20143;-73
2022/10/02 02:43:31;;;;;;;11.85;2.22;;;11.10;99.90;;;;;;5069106;28;20119;-74
2022/10/02 02:46:08;;;;;;;12.65;2.40;;;11.10;99.90;;;;;;5051654;28;20154;-74
2022/10/02 02:48:59;;;;;;;8.68;1.73;;;11.20;99.90;;;;;;5067768;28;20035;-74
2022/10/02 02:51:45;;;;;;;8.57;1.85;;;11.20;99.90;;;;;;5069066;28;20047;-73
2022/10/02 02:54:52;;;;;;;11.63;2.40;;;11.20;99.90;;;;;;5067315;28;20046;-74
2022/10/02 02:57:23;;;;;;;12.82;2.45;;;11.20;99.90;;;;;;5068992;28;20098;-74
2022/10/02 02:59:50;;;;;;;15.40;2.38;;;11.30;99.90;;;;;;5067378;28;20299;-74
2022/10/02 03:02:16;;;;;;;10.13;2.45;;;11.40;99.90;;;;;;5069044;28;20044;-74
2022/10/02 03:04:42;;;;;;;12.85;1.95;;;11.40;99.90;;;;;;5069319;28;20036;-74
2022/10/02 03:07:12;;;;;;;8.68;1.88;;;11.40;99.90;;;;;;5052422;28;20167;-74
2022/10/02 03:09:39;;;;;;;11.15;2.22;;;11.50;99.90;;;;;;5052757;28;20048;-74
2022/10/02 03:12:14;;;;;;;13.23;2.88;;;11.40;99.90;;;;;;5069641;28;20053;-74
2022/10/02 03:14:55;;;;;;;9.68;2.25;;;11.40;99.90;;;;;;5052408;28;20076;-74
2022/10/02 03:18:10;;;;;;;10.77;2.35;;;11.40;99.90;;;;;;5068506;28;20090;-74
2022/10/02 03:21:09;;;;;;;11.40;2.25;;;11.40;99.90;;;;;;5068684;28;20052;-73
2022/10/02 03:23:40;;;;;;;;;;;11.30;99.90;;;;;;5067731;28;20120;-73
2022/10/02 03:26:17;;;;;;;7.53;1.90;;;11.30;99.90;;;;;;5066803;28;19985;-74
2022/10/02 03:28:52;;;;;;;11.30;2.00;;;11.30;99.90;;;;;;5051920;28;20049;-74
2022/10/02 03:31:19;;;;;;;10.45;2.30;;;11.20;99.90;;;;;;5068656;28;20040;-74
2022/10/02 03:33:46;;;;;;;14.00;2.85;;;11.20;99.90;;;;;;5051994;28;20048;-73
2022/10/02 03:36:13;;;;;;;16.42;2.35;;;11.10;99.90;;;;;;5068514;28;20377;-74
2022/10/02 03:38:40;;;;;;;13.07;2.45;;;11.10;99.90;;;;;;5052165;28;20040;-74
2022/10/02 03:41:06;;;;;;;12.52;2.38;;;11.20;99.90;;;;;;5068832;28;20076;-74
2022/10/02 03:43:32;;;;;;;13.80;2.67;;;11.20;99.90;;;;;;5035412;28;20072;-74
2022/10/02 03:45:57;;;;;;;13.07;2.20;;;11.20;99.90;;;;;;5069020;28;20040;-74
2022/10/02 03:48:23;;;;;;;10.00;1.90;;;11.20;99.90;;;;;;5068471;28;20032;-74
2022/10/02 03:50:51;;;;;;;15.23;2.23;;;11.20;99.90;;;;;;5052304;28;20282;-74
2022/10/02 03:53:26;;;;;;;13.98;2.10;;;11.30;99.90;;;;;;5035229;28;20032;-74
2022/10/02 03:56:20;;;;;;;18.50;2.45;;;11.30;99.90;;;;;;5052038;28;20052;-74
2022/10/02 03:58:50;;;;;;;14.70;2.78;;;11.40;99.90;;;;;;5068669;28;20041;-74
2022/10/02 04:01:26;;;;;;;9.73;2.15;;;11.50;99.90;;;;;;5068038;28;20037;-74
2022/10/02 04:04:16;;;;;;;12.27;2.05;;;11.20;99.90;;;;;;5068719;28;20111;-74
2022/10/02 04:07:11;;;;;;;12.82;2.72;;;11.20;99.90;;;;;;5050145;28;20047;-74
2022/10/02 04:09:45;;;;;;;11.07;1.92;;;11.20;99.90;;;;;;5064877;28;20127;-74
2022/10/02 04:12:31;;;;;;;10.57;2.10;;;11.10;99.90;;;;;;5068782;28;20041;-74
2022/10/02 04:15:06;;;;;;;11.98;2.03;;;11.10;99.90;;;;;;5068510;28;20482;-74
2022/10/02 04:17:57;;;;;;;15.15;3.22;;;11.10;99.90;;;;;;5051321;28;20124;-74
2022/10/02 04:20:32;;;;;;;15.55;2.65;;;11.00;99.90;;;;;;5051179;28;20445;-74
2022/10/02 04:23:35;;;;;;;10.50;2.45;;;11.00;99.90;;;;;;5068777;28;20395;-75
2022/10/02 04:26:12;;;;;;;15.13;2.50;;;11.00;99.90;;;;;;5011112;28;20041;-75
2022/10/02 04:28:46;;;;;;;12.93;2.58;;;11.00;99.90;;;;;;5059681;28;20052;-76
2022/10/02 04:31:13;;;;;;;15.05;2.00;;;11.00;99.90;;;;;;5066530;28;20044;-74
2022/10/02 04:33:39;;;;;;;;;;;11.00;99.90;;;;;;5068726;28;20125;-74
2022/10/02 04:36:23;;;;;;;9.75;2.30;;;11.00;99.90;;;;;;5068462;28;19952;-74
2022/10/02 04:38:49;;;;;;;12.60;2.20;;;10.90;99.90;;;;;;5068464;28;20055;-74
2022/10/02 04:41:26;;;;;;;14.50;2.60;;;10.90;99.90;;;;;;5055227;28;20400;-74
2022/10/02 04:43:54;;;;;;;12.85;1.92;;;10.90;99.90;;;;;;5071845;28;20036;-73
2022/10/02 04:46:32;;;;;;;9.73;2.28;;;10.90;99.90;;;;;;5071336;28;20037;-74
2022/10/02 04:49:16;;;;;;;19.48;2.88;;;10.80;99.90;;;;;;5070043;28;20563;-74
2022/10/02 04:52:13;;;;;;;12.70;2.30;;;10.80;99.90;;;;;;5070188;28;20036;-74
2022/10/02 04:54:57;;;;;;;10.00;2.10;;;10.80;99.90;;;;;;5070253;28;20579;-74
2022/10/02 04:57:50;;;;;;;14.57;2.85;;;10.70;99.90;;;;;;5070591;28;20044;-74
2022/10/02 05:00:29;;;;;;;13.23;2.53;;;10.70;99.90;;;;;;5071464;28;20072;-74
2022/10/02 05:03:10;;;;;;;14.98;2.20;;;10.60;99.90;;;;;;5070207;28;20043;-74
2022/10/02 05:05:42;;;;;;;15.10;2.30;;;10.60;99.90;;;;;;5070080;28;20040;-75
2022/10/02 05:08:37;;;;;;;13.23;2.35;;;10.60;99.90;;;;;;5071337;28;20051;-74
2022/10/02 05:11:02;;;;;;;10.32;2.08;;;10.60;99.90;;;;;;5071230;28;20044;-74
2022/10/02 05:13:31;;;;;;;16.03;2.23;;;10.50;99.90;;;;;;5071265;28;20080;-74
2022/10/02 05:16:05;;;;;;;13.68;2.00;;;10.50;99.90;;;;;;5071104;28;20048;-74
2022/10/02 05:18:53;;;;;;;15.63;2.08;;;10.40;99.90;;;;;;5070888;28;20048;-74
2022/10/02 05:21:40;;;;;;;16.30;2.00;;;10.40;99.90;;;;;;5070919;28;20139;-74
2022/10/02 05:24:42;;;;;;;14.82;2.22;;;10.40;99.90;;;;;;5071313;28;20079;-74
2022/10/02 05:27:17;;;;;;;20.15;3.47;;;10.30;99.90;;;;;;5053022;28;20099;-74
2022/10/02 05:29:57;;;;;;;19.42;2.25;;;10.30;99.90;;;;;;5068058;28;20059;-74
2022/10/02 05:32:41;;;;;;;16.33;2.40;;;10.30;99.90;;;;;;5068336;28;20044;-74
2022/10/02 05:35:41;;;;;;;14.50;2.47;;;10.30;99.90;;;;;;5071095;28;20041;-74
2022/10/02 05:38:37;;;;;;;16.85;2.03;;;10.30;99.90;;;;;;5052909;28;20036;-74
2022/10/02 05:41:18;;;;;;;13.05;2.10;;;10.30;99.90;;;;;;5054296;28;20040;-73
2022/10/02 05:44:05;;;;;;;11.02;1.90;;;10.30;99.90;;;;;;5068663;28;20071;-73
2022/10/02 05:46:52;;;;;;;14.82;1.75;;;10.20;99.90;;;;;;5061365;28;20059;-74
2022/10/02 05:49:25;;;;;;;14.48;1.92;;;10.20;99.90;;;;;;5070420;28;20055;-74
2022/10/02 05:52:12;;;;;;;15.25;2.15;;;10.20;99.90;;;;;;5070403;28;20040;-74
2022/10/02 05:54:51;;;;;;;15.13;2.58;;;10.20;99.90;;;;;;5069831;28;20040;-74
2022/10/02 05:57:26;;;;;;;17.90;2.40;;;10.20;99.90;;;;;;5053825;28;20068;-74
2022/10/02 06:00:10;;;;;;;15.23;2.13;;;10.20;99.90;;;;;;5070209;28;20060;-74
2022/10/02 06:02:49;;;;;;;16.88;2.45;;;10.20;99.90;;;;;;5053275;28;20032;-74
2022/10/02 06:05:24;;;;;;;12.95;2.33;;;10.20;99.90;;;;;;5070467;28;20499;-74
2022/10/02 06:07:55;;;;;;;15.38;1.98;;;10.20;99.90;;;;;;5068389;28;20045;-74
2022/10/02 06:10:49;;;;;;;14.02;2.17;;;10.30;99.90;;;;;;5053358;28;20078;-74
2022/10/02 06:13:26;;;;;;;12.68;2.28;;;10.30;99.90;;;;;;5051955;28;20048;-74
2022/10/02 06:16:13;;;;;;;18.00;2.35;;;10.30;99.90;;;;;;5068408;28;20048;-74
2022/10/02 06:18:43;;;;;;;13.98;2.20;;;10.30;99.90;;;;;;5049857;28;20043;-74
2022/10/02 06:21:26;;;;;;;14.52;2.15;;;10.40;99.90;;;;;;5052434;28;20049;-74
2022/10/02 06:23:57;;;;;;;14.00;2.72;;;10.50;99.90;;;;;;5052330;28;20488;-74
2022/10/02 06:26:38;;;;;;;11.73;2.15;;;10.60;99.90;;;;;;5068982;28;20119;-74
2022/10/02 06:29:26;;;;;;;16.17;2.40;;;10.60;99.90;;;;;;5069200;28;20098;-74
2022/10/02 06:32:10;;;;;;;12.73;2.10;;;10.70;99.90;;;;;;5067440;28;20052;-73
2022/10/02 06:34:36;;;;;;;15.55;2.42;;;10.80;99.90;;;;;;5068731;28;20368;-74
2022/10/02 06:37:10;;;;;;;19.33;2.80;;;10.90;99.90;;;;;;5069776;28;20041;-74
2022/10/02 06:39:42;;;;;;;13.70;2.15;;;11.10;99.90;;;;;;5068958;28;20119;-74
2022/10/02 06:42:30;;;;;;;16.77;1.98;;;11.20;99.90;;;;;;5069751;28;20044;-74
2022/10/02 06:44:55;;;;;;;;;;;11.30;99.90;;;;;;5069821;28;20189;-74
2022/10/02 06:47:38;;;;;;;10.20;1.92;;;11.50;99.90;;;;;;5069350;28;20391;-74
2022/10/02 06:50:22;;;;;;;14.95;2.03;;;11.60;99.90;;;;;;5052638;28;20055;-74
2022/10/02 06:53:00;;;;;;;13.45;2.47;;;11.90;99.90;;;;;;5067208;28;20043;-74
2022/10/02 06:55:43;;;;;;;13.68;2.03;;;12.10;99.90;;;;;;5069326;28;20036;-75
2022/10/02 06:58:08;;;;;;;12.98;2.38;;;12.30;99.90;;;;;;5069815;28;20048;-74
2022/10/02 07:00:48;;;;;;;14.30;2.37;;;12.60;99.90;;;;;;5068794;28;20485;-74
2022/10/02 07:03:34;;;;;;;11.10;1.85;;;12.70;99.90;;;;;;5069013;28;20766;-75
2022/10/02 07:06:11;;;;;;;14.85;2.28;;;12.70;99.90;;;;;;5068630;28;20047;-74
2022/10/02 07:09:04;;;;;;;11.65;2.20;;;12.70;99.90;;;;;;5068813;28;20112;-75
2022/10/02 07:11:49;;;;;;;14.93;1.70;;;12.80;99.90;;;;;;5067976;28;20044;-74
2022/10/02 07:14:38;;;;;;;18.63;2.30;;;12.90;99.90;;;;;;5069485;28;20045;-74
2022/10/02 07:17:22;;;;;;;17.40;2.15;;;12.90;99.90;;;;;;5067121;28;20040;-74
2022/10/02 07:20:29;;;;;;;12.13;1.70;;;13.00;99.90;;;;;;5068759;28;20294;-77
2022/10/02 07:23:10;;;;;;;;;;;13.00;99.90;;;;;;5067127;28;20048;-76
2022/10/02 07:26:03;;;;;;;13.45;1.92;;;12.90;99.90;;;;;;5066829;28;19923;-76
2022/10/02 07:28:42;;;;;;;12.43;2.22;;;12.80;99.90;;;;;;5068562;28;20036;-76
2022/10/02 07:31:51;;;;;;;15.20;2.25;;;12.80;99.90;;;;;;5069478;28;20051;-76
2022/10/02 07:34:41;;;;;;;13.25;2.00;;;12.80;99.90;;;;;;5015021;28;20106;-75
2022/10/02 07:37:35;;;;;;;9.13;1.85;;;12.90;99.90;;;;;;5029204;28;20091;-76
2022/10/02 07:40:20;;;;;;;12.90;2.25;;;13.20;99.90;;;;;;5062688;28;20106;-75
2022/10/02 07:43:18;;;;;;;11.57;2.30;;;13.90;99.90;;;;;;5069127;28;20530;-75
2022/10/02 07:45:56;;;;;;;11.80;2.00;;;14.50;99.90;;;;;;5066740;28;20465;-74
2022/10/02 07:48:27;;;;;;;12.63;2.33;;;14.50;99.90;;;;;;5052107;28;20119;-74
2022/10/02 07:50:56;;;;;;;13.20;2.28;;;14.40;99.90;;;;;;5068881;28;20052;-74
2022/10/02 07:53:50;;;;;;;9.18;2.55;;;14.10;99.90;;;;;;5069131;28;20044;-74
2022/10/02 07:56:20;;;;;;;13.25;1.83;;;13.90;99.90;;;;;;5064023;28;20063;-74
2022/10/02 07:59:02;;;;;;;13.85;2.10;;;13.70;99.90;;;;;;5068553;28;20049;-74
2022/10/02 08:01:34;;;;;;;15.02;2.28;;;13.50;99.90;;;;;;5068927;28;20082;-75
2022/10/02 08:04:04;;;;;;;14.25;2.00;;;13.30;99.90;;;;;;5068278;28;20055;-74
2022/10/02 08:06:32;;;;;;;17.23;1.98;;;13.20;99.90;;;;;;5052228;28;20117;-74
2022/10/02 08:09:01;;;;;;;10.85;1.77;;;13.10;99.90;;;;;;5068549;28;20047;-75
2022/10/02 08:11:43;;;;;;;13.20;2.03;;;13.10;99.90;;;;;;5049814;28;20044;-74
2022/10/02 08:14:39;;;;;;;12.27;2.38;;;13.10;99.90;;;;;;5071771;28;20487;-74
2022/10/02 08:17:41;;;;;;;9.75;1.83;;;13.20;99.90;;;;;;5070223;28;20048;-74
2022/10/02 08:20:19;;;;;;;11.63;2.03;;;13.30;99.90;;;;;;5067623;28;20075;-74
2022/10/02 08:22:50;;;;;;;9.30;2.03;;;13.20;99.90;;;;;;5072119;28;20123;-74
2022/10/02 08:25:24;;;;;;;9.05;1.77;;;13.20;99.90;;;;;;5072199;28;20032;-74
2022/10/02 08:28:01;;;;;;;14.45;2.15;;;13.10;99.90;;;;;;5070482;28;20082;-74
2022/10/02 08:30:33;;;;;;;10.82;1.70;;;13.00;99.90;;;;;;5071122;28;20083;-75
2022/10/02 08:32:59;;;;;;;11.23;2.63;;;13.00;99.90;;;;;;5071900;28;20045;-75
2022/10/02 08:35:56;;;;;;;9.57;2.10;;;13.00;99.90;;;;;;5071740;28;20074;-75
2022/10/02 08:38:31;;;;;;;7.15;1.80;;;13.00;99.90;;;;;;5072133;28;20048;-75
2022/10/02 08:41:06;;;;;;;12.80;2.08;;;13.00;99.90;;;;;;5054819;28;20044;-75
2022/10/02 08:44:00;;;;;;;9.07;2.15;;;13.00;99.90;;;;;;5072124;28;20036;-75
2022/10/02 08:46:47;;;;;;;9.60;2.17;;;13.00;99.90;;;;;;5070170;28;20072;-74
2022/10/02 08:49:54;;;;;;;9.60;2.28;;;13.10;99.90;;;;;;5071053;28;20111;-75
2022/10/02 08:52:49;;;;;;;7.55;1.90;;;13.20;99.90;;;;;;5069470;28;20040;-75
2022/10/02 08:55:46;;;;;;;9.13;1.77;;;13.20;99.90;;;;;;5066828;28;20478;-76
2022/10/02 08:58:26;;;;;;;11.55;1.90;;;13.20;99.90;;;;;;5072112;28;20115;-75
2022/10/02 09:01:04;;;;;;;13.30;2.60;;;13.20;99.90;;;;;;5053960;28;20041;-75
2022/10/02 09:03:45;;;;;;;9.07;2.55;;;13.20;99.90;;;;;;5071480;28;20036;-75
2022/10/02 09:06:23;;;;;;;9.40;2.13;;;13.30;99.90;;;;;;5054483;28;20093;-74
2022/10/02 09:09:03;;;;;;;10.40;1.73;;;13.50;99.90;;;;;;5070739;28;20392;-76
2022/10/02 09:12:25;;;;;;;10.43;1.83;;;14.10;99.90;;;;;;5055503;28;20036;-75
2022/10/02 09:15:15;;;;;;;8.85;1.40;;;15.50;99.90;;;;;;5015510;28;20384;-76
2022/10/02 09:18:03;;;;;;;7.28;1.42;;;16.90;99.90;;;;;;5069779;28;20123;-75
2022/10/02 09:21:03;;;;;;;10.20;1.55;;;17.10;99.90;;;;;;5071199;28;20066;-75
2022/10/02 09:23:47;;;;;;;6.68;1.40;;;17.10;99.90;;;;;;5071721;28;20033;-76
2022/10/02 09:26:32;;;;;;;5.97;1.38;;;17.30;99.90;;;;;;5070668;28;20503;-75
2022/10/02 09:29:31;;;;;;;6.40;1.48;;;17.90;99.90;;;;;;5069916;28;20799;-74
2022/10/02 09:32:12;;;;;;;11.57;2.35;;;18.20;99.90;;;;;;5071158;28;20101;-74
2022/10/02 09:34:47;;;;;;;6.68;1.50;;;18.40;99.90;;;;;;5052331;28;20139;-73
2022/10/02 09:37:43;;;;;;;10.07;1.65;;;18.80;99.90;;;;;;5068171;28;20071;-74
2022/10/02 09:40:24;;;;;;;7.57;1.83;;;19.30;99.90;;;;;;5069689;28;20476;-75
2022/10/02 09:42:50;;;;;;;5.57;1.13;;;19.40;99.90;;;;;;5069945;28;20102;-74
2022/10/02 09:45:54;;;;;;;7.18;1.35;;;19.10;99.90;;;;;;5067706;28;20052;-74
2022/10/02 09:48:59;;;;;;;9.27;1.85;;;18.70;99.90;;;;;;5053569;28;20032;-74
2022/10/02 09:51:56;;;;;;;7.72;1.50;;;19.10;99.90;;;;;;5070070;28;20052;-74
2022/10/02 09:55:04;;;;;;;8.38;1.70;;;19.80;99.90;;;;;;5069903;28;20036;-74
2022/10/02 09:57:49;;;;;;;;;;;20.60;99.90;;;;;;5068713;28;20036;-74
2022/10/02 10:00:51;;;;;;;5.32;1.15;;;21.30;99.90;;;;;;5070662;28;20379;-74
2022/10/02 10:03:43;;;;;;;6.72;1.60;;;21.80;99.90;;;;;;5069504;28;20067;-75
2022/10/02 10:06:12;;;;;;;9.95;1.83;;;22.10;99.90;;;;;;5028767;28;20488;-75
2022/10/02 10:08:41;;;;;;;10.32;1.75;;;22.60;99.90;;;;;;5053994;28;20492;-74
2022/10/02 10:11:28;;;;;;;11.98;2.22;;;22.60;99.90;;;;;;5070591;28;20036;-75
2022/10/02 10:14:24;;;;;;;14.45;2.25;;;22.20;99.90;;;;;;5068580;28;20043;-74
2022/10/02 10:17:18;;;;;;;8.95;1.83;;;22.50;99.90;;;;;;5051481;28;20044;-76
2022/10/02 10:19:58;;;;;;;6.85;1.48;;;22.60;99.90;;;;;;5052920;28;20396;-74
2022/10/02 10:23:02;;;;;;;8.90;1.75;;;22.60;99.90;;;;;;5069698;28;20040;-74
2022/10/02 10:25:36;;;;;;;10.73;1.83;;;22.90;99.90;;;;;;5053649;28;20032;-75
2022/10/02 10:28:15;;;;;;;11.00;1.85;;;23.00;99.90;;;;;;5070531;28;20373;-74
2022/10/02 10:30:47;;;;;;;8.15;1.73;;;22.90;99.90;;;;;;5068985;28;20037;-75
2022/10/02 10:33:59;;;;;;;8.15;1.58;;;22.70;99.90;;;;;;5053593;28;20040;-75
2022/10/02 10:40:02;;;;;;;9.95;2.00;;;20.40;99.90;;;;;;5069552;28;20492;-74
2022/10/02 10:43:03;;;;;;;7.82;1.92;;;20.00;99.90;;;;;;5070416;28;20116;-77
2022/10/02 10:45:57;;;;;;;8.85;1.77;;;19.60;99.90;;;;;;5070594;28;20392;-75
2022/10/02 10:48:51;;;;;;;8.52;1.40;;;19.30;99.90;;;;;;5068431;28;20036;-75
2022/10/02 10:51:50;;;;;;;11.18;2.10;;;19.10;99.90;;;;;;5067018;28;20076;-75
2022/10/02 10:54:24;;;;;;;8.20;1.70;;;18.80;99.90;;;;;;5069371;28;20045;-75
2022/10/02 10:57:11;;;;;;;8.13;1.77;;;18.60;99.90;;;;;;5070233;28;20041;-75
2022/10/02 10:59:51;;;;;;;12.18;2.38;;;18.50;99.90;;;;;;5053336;28;20043;-75
2022/10/02 11:02:19;;;;;;;8.93;1.77;;;18.90;99.90;;;;;;5067522;28;20137;-75
2022/10/02 11:05:14;;;;;;;10.88;1.92;;;19.50;99.90;;;;;;5070097;28;20388;-75
2022/10/02 11:07:58;;;;;;;13.68;1.98;;;20.00;99.90;;;;;;5053215;28;20076;-76
2022/10/02 11:10:29;;;;;;;8.88;1.70;;;20.30;99.90;;;;;;5053261;28;20124;-78
2022/10/02 11:13:24;;;;;;;10.60;1.65;;;20.60;99.90;;;;;;5070197;28;20048;-77
2022/10/02 11:16:12;;;;;;;8.85;2.13;;;20.00;99.90;;;;;;5070284;28;20485;-77
2022/10/02 11:18:46;;;;;;;8.27;2.10;;;19.60;99.90;;;;;;5068457;28;20527;-78
2022/10/02 11:21:45;;;;;;;8.70;1.73;;;19.40;99.90;;;;;;5069387;28;20397;-76
2022/10/02 11:24:44;;;;;;;7.70;1.65;;;20.00;99.90;;;;;;5067801;28;20036;-78
2022/10/02 11:27:29;;;;;;;9.52;1.80;;;20.80;99.90;;;;;;5068022;28;20081;-77
2022/10/02 11:30:19;;;;;;;9.77;1.60;;;21.10;99.90;;;;;;5069383;28;20096;-76
2022/10/02 11:32:53;;;;;;;8.02;1.50;;;21.00;99.90;;;;;;5053137;28;20060;-77
2022/10/02 11:35:23;;;;;;;9.65;1.80;;;20.20;99.90;;;;;;5069600;28;20107;-77
2022/10/02 11:38:03;;;;;;;9.35;1.95;;;19.50;99.90;;;;;;5069987;28;20032;-77
2022/10/02 11:40:28;;;;;;;11.75;1.98;;;19.20;99.90;;;;;;5068582;28;20123;-77
2022/10/02 11:43:26;;;;;;;11.60;1.92;;;19.40;99.90;;;;;;5070375;28;20072;-77
2022/10/02 11:46:13;;;;;;;14.05;2.10;;;19.50;99.90;;;;;;5069299;28;20396;-77
2022/10/02 11:48:57;;;;;;;8.75;1.95;;;19.80;99.90;;;;;;5053136;28;20040;-76
2022/10/02 11:51:50;;;;;;;6.35;1.58;;;20.10;99.90;;;;;;5072440;28;20048;-76
2022/10/02 11:54:22;;;;;;;9.27;2.08;;;20.60;99.90;;;;;;5054776;28;20036;-77
2022/10/02 11:57:13;;;;;;;10.45;1.70;;;21.20;99.90;;;;;;5073957;28;20040;-77
2022/10/02 12:00:12;;;;;;;8.35;1.92;;;20.80;99.90;;;;;;5056791;28;20472;-77
2022/10/02 12:02:56;;;;;;;8.82;1.80;;;20.50;99.90;;;;;;5074082;28;20094;-77
2022/10/02 12:05:56;;;;;;;8.50;1.58;;;19.70;99.90;;;;;;5072837;28;20047;-77
2022/10/02 12:08:45;;;;;;;11.65;1.58;;;19.20;99.90;;;;;;5056368;28;20040;-77
2022/10/02 12:11:24;;;;;;;7.70;1.42;;;18.70;99.90;;;;;;5073399;28;20437;-77
2022/10/02 12:13:50;;;;;;;10.18;2.03;;;18.80;99.90;;;;;;5072203;28;20115;-77
2022/10/02 12:16:34;;;;;;;7.85;1.52;;;19.70;99.90;;;;;;5073571;28;20116;-77
2022/10/02 12:26:57;;;;;;;8.82;1.90;;;20.40;99.90;;;;;;5073702;28;20484;-77
2022/10/02 12:28:55;;;;;;;7.70;1.40;;;20.70;99.90;;;;;;5072326;28;20045;-78
2022/10/02 12:31:35;;;;;;;12.77;1.88;;;21.40;99.90;;;;;;5056155;28;20052;-77
2022/10/02 12:34:29;;;;;;;7.57;1.42;;;21.60;99.90;;;;;;5073460;28;20067;-77
2022/10/02 12:37:04;;;;;;;10.63;1.73;;;21.80;99.90;;;;;;5073198;28;20063;-77
2022/10/02 12:40:09;;;;;;;8.32;1.77;;;22.00;99.90;;;;;;5073169;28;20135;-77
2022/10/02 12:42:59;;;;;;;6.55;1.45;;;22.50;99.90;;;;;;5052117;28;20059;-77
2022/10/02 12:45:44;;;;;;;8.23;1.65;;;22.30;99.90;;;;;;5071924;28;20043;-77
2022/10/02 12:48:37;;;;;;;8.20;1.23;;;22.60;99.90;;;;;;5056226;28;20507;-77
2022/10/02 12:51:24;;;;;;;9.23;1.73;;;23.00;99.90;;;;;;5072825;28;20037;-75
2022/10/02 12:54:27;;;;;;;9.18;1.50;;;22.60;99.90;;;;;;5054462;28;20143;-78
2022/10/02 13:00:15;;;;;;;8.65;1.85;;;20.90;99.90;;;;;;5070212;28;20043;-77
2022/10/02 13:02:49;;;;;;;8.13;1.60;;;20.00;99.90;;;;;;5072355;28;20492;-76
2022/10/02 13:05:43;;;;;;;10.38;1.85;;;20.40;99.90;;;;;;5055833;28;20492;-78
2022/10/02 13:08:17;;;;;;;9.90;1.85;;;21.00;99.90;;;;;;5071964;28;20097;-77
2022/10/02 13:11:06;;;;;;;11.40;2.03;;;20.60;99.90;;;;;;5071706;28;20123;-78
2022/10/02 13:13:55;;;;;;;9.35;1.95;;;20.50;99.90;;;;;;5072177;28;20048;-80
2022/10/02 13:17:04;;;;;;;10.23;1.60;;;19.90;99.90;;;;;;5055690;28;20555;-80
2022/10/02 13:20:09;;;;;;;10.63;2.03;;;19.50;99.90;;;;;;5055317;28;21166;-80
2022/10/02 13:22:35;;;;;;;11.57;2.05;;;19.20;99.90;;;;;;5072203;28;20377;-81
2022/10/02 13:25:25;;;;;;;9.43;1.88;;;19.30;99.90;;;;;;5071642;28;20047;-80
2022/10/02 13:28:25;;;;;;;9.70;1.80;;;19.20;99.90;;;;;;5069879;28;20037;-80
2022/10/02 13:31:20;;;;;;;10.77;1.77;;;19.00;99.90;;;;;;5044112;28;20534;-81
2022/10/02 13:34:08;;;;;;;6.78;1.50;;;19.00;99.90;;;;;;5071269;28;20035;-79
2022/10/02 13:37:10;;;;;;;11.27;1.80;;;18.80;99.90;;;;;;5070124;28;20464;-79
2022/10/02 13:39:43;;;;;;;8.63;1.50;;;18.50;99.90;;;;;;5054137;28;20047;-79
2022/10/02 13:42:43;;;;;;;8.80;1.60;;;18.30;99.90;;;;;;5055018;28;20047;-80
2022/10/02 13:45:25;;;;;;;8.50;1.83;;;18.30;99.90;;;;;;5071504;28;20075;-80
2022/10/02 13:48:23;;;;;;;11.07;1.88;;;18.30;99.90;;;;;;5070820;28;20040;-80
2022/10/02 13:51:15;;;;;;;8.85;1.60;;;18.30;99.90;;;;;;5055378;28;20083;-80
2022/10/02 13:53:44;;;;;;;10.10;1.58;;;18.00;99.90;;;;;;5070090;28;20503;-80
2022/10/02 13:56:32;;;;;;;12.23;2.03;;;17.90;99.90;;;;;;5071639;28;20455;-80
2022/10/02 13:59:16;;;;;;;12.93;1.73;;;17.80;99.90;;;;;;5069375;28;20110;-80
2022/10/02 14:01:56;;;;;;;9.88;1.55;;;17.70;99.90;;;;;;5054535;28;20396;-80
2022/10/02 14:04:32;;;;;;;11.05;1.65;;;17.70;99.90;;;;;;5054257;28;20043;-80
2022/10/02 14:07:16;;;;;;;10.00;1.67;;;17.90;99.90;;;;;;5052451;28;20041;-80
2022/10/02 14:09:51;;;;;;;14.15;2.08;;;17.90;99.90;;;;;;5071121;28;20438;-80